Pierport, Michigan
Current Conditions -  °F | °C
As of 7:15 AM on Friday 21 Nov 2014 (Local Time) from KMBL Reporting Station
Broken Clouds Broken Clouds  
Wind Chill: 13°   Ceiling: 2700
Heat Index: 21°   Visibility: 10mi
Dew Point: 10°   Wind: 7mph
Humidity: 63%   Direction: 300°WNW
Pressure: 30.34"   Gusts: NA
Location:  44.4397°N, 86.1119°W
Report Text: KMBL 211215Z AUTO 30006KT 10SM BKN027 BKN033 M06/M12 A3034 RMK AO1
Loading
Personal Weather Stations






























Interactive Weather Map New forecast layout! Learn more

10-Day Weather Forecast

Advertisements
Track Severe Weather on mobile